createdAt,value
2019-01-18T00:00:57.690Z,99857.00
2019-01-18T00:03:27.852Z,99860.00
2019-01-18T00:05:57.933Z,99855.00
2019-01-18T00:08:28.045Z,99859.00
2019-01-18T00:10:58.108Z,99868.00
2019-01-18T00:13:28.202Z,99858.00
2019-01-18T00:15:58.275Z,99861.00
2019-01-18T00:18:28.370Z,99868.00
2019-01-18T00:20:58.511Z,99870.00
2019-01-18T00:23:40.941Z,99875.00
2019-01-18T00:26:11.014Z,99875.00
2019-01-18T00:28:41.107Z,99880.00
2019-01-18T00:31:11.281Z,99877.00
2019-01-18T00:33:41.363Z,99879.00
2019-01-18T00:36:11.445Z,99879.00
2019-01-18T00:38:41.539Z,99877.00
2019-01-18T00:41:11.604Z,99895.00
2019-01-18T00:43:41.700Z,99893.00
2019-01-18T00:46:11.762Z,99893.00
2019-01-18T00:48:41.855Z,99893.00
2019-01-18T00:51:11.920Z,99897.00
2019-01-18T00:53:42.010Z,99910.00
2019-01-18T00:56:12.074Z,99912.00
2019-01-18T00:58:42.315Z,99912.00
2019-01-18T01:01:12.379Z,99927.00
2019-01-18T01:03:42.464Z,99924.00
2019-01-18T01:06:12.528Z,99924.00
2019-01-18T01:08:42.686Z,99941.00
2019-01-18T01:11:12.759Z,99951.00
2019-01-18T01:13:42.849Z,99968.00
2019-01-18T01:16:12.923Z,99977.00
2019-01-18T01:18:43.016Z,99981.00
2019-01-18T01:21:13.084Z,99992.00
2019-01-18T01:23:43.217Z,100016.00
2019-01-18T01:26:13.244Z,100033.00
2019-01-18T01:28:43.345Z,100040.00
2019-01-18T01:31:13.417Z,100052.00
2019-01-18T01:33:43.519Z,100066.00
2019-01-18T01:36:13.595Z,100061.00
2019-01-18T01:38:43.693Z,100084.00
2019-01-18T01:41:13.784Z,100090.00
2019-01-18T01:43:43.912Z,100099.00
2019-01-18T01:46:14.018Z,100116.00
2019-01-18T01:48:56.396Z,100112.00
2019-01-18T01:51:26.478Z,100130.00
2019-01-18T01:53:56.604Z,100137.00
2019-01-18T01:56:26.682Z,100139.00
2019-01-18T01:59:09.284Z,100149.00
2019-01-18T02:01:39.369Z,100157.00
2019-01-18T02:04:09.471Z,100160.00
2019-01-18T02:06:39.554Z,100161.00
2019-01-18T02:09:09.654Z,100172.00
2019-01-18T02:11:39.734Z,100173.00
2019-01-18T02:14:09.831Z,100179.00
2019-01-18T02:16:39.909Z,100182.00
2019-01-18T02:19:10.014Z,100184.00
2019-01-18T02:21:40.116Z,100185.00
2019-01-18T02:24:10.304Z,100197.00
2019-01-18T02:26:40.401Z,100200.00
2019-01-18T02:29:10.476Z,100215.00
2019-01-18T02:31:40.574Z,100221.00
2019-01-18T02:34:10.649Z,100220.00
2019-01-18T02:36:41.413Z,100221.00
2019-01-18T02:39:11.522Z,100228.00
2019-01-18T02:41:41.612Z,100237.00
2019-01-18T02:44:11.696Z,100239.00
2019-01-18T02:46:41.793Z,100247.00
2019-01-18T02:49:31.325Z,100251.00
2019-01-18T02:52:01.407Z,100251.00
2019-01-18T02:54:31.507Z,100257.00
2019-01-18T02:57:01.602Z,100270.00
2019-01-18T02:59:31.677Z,100270.00
2019-01-18T03:02:01.782Z,100285.00
2019-01-18T03:04:31.864Z,100281.00
2019-01-18T03:07:02.439Z,100296.00
2019-01-18T03:09:33.081Z,100288.00
2019-01-18T03:12:03.192Z,100299.00
2019-01-18T03:14:33.324Z,100311.00
2019-01-18T03:17:03.413Z,100319.00
2019-01-18T03:19:33.503Z,100335.00
2019-01-18T03:22:03.593Z,100330.00
2019-01-18T03:24:33.668Z,100344.00
2019-01-18T03:27:04.952Z,100349.00
2019-01-18T03:29:35.089Z,100352.00
2019-01-18T03:32:05.224Z,100359.00
2019-01-18T03:34:35.263Z,100363.00
2019-01-18T03:37:05.395Z,100358.00
2019-01-18T03:39:35.477Z,100372.00
2019-01-18T03:42:05.654Z,100373.00
2019-01-18T03:44:35.736Z,100373.00
2019-01-18T03:47:05.832Z,100383.00
2019-01-18T03:49:35.916Z,100384.00
2019-01-18T03:52:06.024Z,100387.00
2019-01-18T03:54:36.101Z,100382.00
2019-01-18T03:57:06.201Z,100398.00
2019-01-18T03:59:36.285Z,100401.00
2019-01-18T04:02:06.387Z,100411.00
2019-01-18T04:04:36.516Z,100411.00
2019-01-18T04:07:06.607Z,100411.00
2019-01-18T04:09:37.322Z,100422.00
2019-01-18T04:12:07.454Z,100421.00
2019-01-18T04:14:37.515Z,100427.00
2019-01-18T04:17:07.681Z,100432.00
2019-01-18T04:19:37.758Z,100438.00
2019-01-18T04:22:07.854Z,100451.00
2019-01-18T04:24:38.003Z,100447.00
2019-01-18T04:27:08.098Z,100458.00
2019-01-18T04:29:38.174Z,100463.00
2019-01-18T04:32:08.273Z,100463.00
2019-01-18T04:34:38.348Z,100463.00
2019-01-18T04:37:08.446Z,100463.00
2019-01-18T04:39:38.526Z,100475.00
2019-01-18T04:42:08.633Z,100481.00
2019-01-18T04:44:38.709Z,100481.00
2019-01-18T04:47:09.172Z,100479.00
2019-01-18T04:49:39.251Z,100488.00
2019-01-18T04:52:09.454Z,100509.00
2019-01-18T04:54:39.516Z,100497.00
2019-01-18T04:57:09.618Z,100495.00
2019-01-18T04:59:39.698Z,100530.00
2019-01-18T05:02:09.805Z,100518.00
2019-01-18T05:04:39.885Z,100532.00
2019-01-18T05:07:09.987Z,100532.00
2019-01-18T05:09:40.062Z,100552.00
2019-01-18T05:12:10.166Z,100539.00
2019-01-18T05:14:40.249Z,100554.00
2019-01-18T05:17:10.346Z,100565.00
2019-01-18T05:19:41.584Z,100562.00
2019-01-18T05:22:11.799Z,100571.00
2019-01-18T05:24:49.081Z,100580.00
2019-01-18T05:27:13.679Z,100587.00
2019-01-18T05:29:43.777Z,100590.00
2019-01-18T05:32:26.669Z,100599.00
2019-01-18T05:34:56.755Z,100609.00
2019-01-18T05:37:26.855Z,100614.00
2019-01-18T05:39:56.939Z,100622.00
2019-01-18T05:42:27.067Z,100630.00
2019-01-18T05:44:58.133Z,100628.00
2019-01-18T05:47:28.236Z,100635.00
2019-01-18T05:49:58.324Z,100646.00
2019-01-18T05:52:28.423Z,100652.00
2019-01-18T05:54:58.502Z,100665.00
2019-01-18T05:57:28.618Z,100676.00
2019-01-18T05:59:58.706Z,100676.00
2019-01-18T06:02:28.813Z,100684.00
2019-01-18T06:04:59.570Z,100700.00
2019-01-18T06:07:29.671Z,100695.00
2019-01-18T06:09:59.811Z,100703.00
2019-01-18T06:12:29.919Z,100715.00
2019-01-18T06:14:59.996Z,100719.00
2019-01-18T06:17:30.103Z,100730.00
2019-01-18T06:20:00.235Z,100736.00
2019-01-18T06:22:30.286Z,100733.00
2019-01-18T06:25:00.362Z,100743.00
2019-01-18T06:27:30.463Z,100746.00
2019-01-18T06:30:00.548Z,100749.00
2019-01-18T06:32:30.654Z,100759.00
2019-01-18T06:35:00.745Z,100773.00
2019-01-18T06:37:30.858Z,100778.00
2019-01-18T06:40:00.935Z,100788.00
2019-01-18T06:42:31.041Z,100798.00
2019-01-18T06:45:01.165Z,100806.00
2019-01-18T06:47:31.308Z,100809.00
2019-01-18T06:50:01.390Z,100815.00
2019-01-18T06:52:31.491Z,100836.00
2019-01-18T06:55:01.574Z,100831.00
2019-01-18T06:57:31.681Z,100829.00
2019-01-18T07:00:01.765Z,100843.00
2019-01-18T07:02:31.867Z,100845.00
2019-01-18T07:05:01.970Z,100839.00
2019-01-18T07:07:32.073Z,100851.00
2019-01-18T07:10:02.151Z,100852.00
2019-01-18T07:12:32.256Z,100862.00
2019-01-18T07:15:02.338Z,100873.00
2019-01-18T07:17:32.439Z,100885.00
2019-01-18T07:20:02.963Z,100889.00
2019-01-18T07:22:33.124Z,100895.00
2019-01-18T07:25:03.234Z,100901.00
2019-01-18T07:27:33.322Z,100916.00
2019-01-18T07:30:05.131Z,100917.00
2019-01-18T07:32:35.713Z,100915.00
2019-01-18T07:35:08.575Z,100928.00
2019-01-18T07:37:38.653Z,100930.00
2019-01-18T07:40:11.169Z,100939.00
2019-01-18T07:42:41.256Z,100947.00
2019-01-18T07:45:24.730Z,100956.00
2019-01-18T07:47:54.835Z,100957.00
2019-01-18T07:50:24.922Z,100965.00
2019-01-18T07:52:55.023Z,100970.00
2019-01-18T07:55:25.103Z,100976.00
2019-01-18T07:57:55.224Z,100973.00
2019-01-18T08:00:30.406Z,100985.00
2019-01-18T08:03:00.574Z,100985.00
2019-01-18T08:05:30.782Z,100987.00
2019-01-18T08:08:03.133Z,100997.00
2019-01-18T08:10:33.256Z,101000.00
2019-01-18T08:13:06.526Z,101012.00
2019-01-18T08:15:36.590Z,101019.00
2019-01-18T08:18:09.579Z,101021.00
2019-01-18T08:20:39.645Z,101037.00
2019-01-18T08:23:09.747Z,101032.00
2019-01-18T08:25:39.826Z,101048.00
2019-01-18T08:28:10.027Z,101052.00
2019-01-18T08:30:40.113Z,101047.00
2019-01-18T08:33:10.353Z,101062.00
2019-01-18T08:35:40.578Z,101072.00
2019-01-18T08:38:10.742Z,101065.00
2019-01-18T08:40:40.844Z,101062.00
2019-01-18T08:43:11.001Z,101076.00
2019-01-18T08:45:44.998Z,101076.00
2019-01-18T08:48:15.147Z,101075.00
2019-01-18T08:50:45.239Z,101083.00
2019-01-18T08:53:15.314Z,101080.00
2019-01-18T08:55:45.404Z,101092.00
2019-01-18T08:58:15.472Z,101102.00
2019-01-18T09:00:45.565Z,101104.00
2019-01-18T09:03:15.646Z,101099.00
2019-01-18T09:05:45.750Z,101105.00
2019-01-18T09:08:15.865Z,101111.00
2019-01-18T09:10:46.635Z,101106.00
2019-01-18T09:13:16.705Z,101112.00
2019-01-18T09:15:46.939Z,101111.00
2019-01-18T09:18:17.008Z,101113.00
2019-01-18T09:20:47.111Z,101122.00
2019-01-18T09:23:17.271Z,101126.00
2019-01-18T09:25:47.373Z,101129.00
2019-01-18T09:28:17.585Z,101124.00
2019-01-18T09:30:47.669Z,101134.00
2019-01-18T09:33:17.847Z,101127.00
2019-01-18T09:35:47.947Z,101139.00
2019-01-18T09:38:18.181Z,101135.00
2019-01-18T09:40:48.318Z,101144.00
2019-01-18T09:43:18.408Z,101147.00
2019-01-18T09:45:48.510Z,101145.00
2019-01-18T09:48:18.596Z,101153.00
2019-01-18T09:50:48.697Z,101153.00
2019-01-18T09:53:18.799Z,101151.00
2019-01-18T09:55:48.908Z,101169.00
2019-01-18T09:58:19.432Z,101161.00
2019-01-18T10:00:49.604Z,101163.00
2019-01-18T10:03:19.687Z,101163.00
2019-01-18T10:05:49.793Z,101165.00
2019-01-18T10:08:19.870Z,101164.00
2019-01-18T10:10:49.973Z,101167.00
2019-01-18T10:13:20.060Z,101167.00
2019-01-18T10:15:50.303Z,101170.00
2019-01-18T10:18:20.374Z,101166.00
2019-01-18T10:20:50.482Z,101165.00
2019-01-18T10:23:20.568Z,101160.00
2019-01-18T10:25:50.683Z,101176.00
2019-01-18T10:28:20.767Z,101169.00
2019-01-18T10:30:50.872Z,101164.00
2019-01-18T10:33:21.036Z,101178.00
2019-01-18T10:35:51.127Z,101162.00
2019-01-18T10:38:21.212Z,101177.00
2019-01-18T10:40:51.319Z,101176.00
2019-01-18T10:43:21.573Z,101182.00
2019-01-18T10:45:51.673Z,101188.00
2019-01-18T10:48:21.756Z,101187.00
2019-01-18T10:50:51.863Z,101190.00
2019-01-18T10:53:21.952Z,101195.00
2019-01-18T10:55:52.059Z,101206.00
2019-01-18T10:58:22.144Z,101200.00
2019-01-18T11:00:52.243Z,101206.00
2019-01-18T11:03:22.322Z,101204.00
2019-01-18T11:05:52.432Z,101216.00
2019-01-18T11:08:22.514Z,101218.00
2019-01-18T11:10:52.813Z,101213.00
2019-01-18T11:13:22.936Z,101222.00
2019-01-18T11:15:53.066Z,101219.00
2019-01-18T11:18:23.158Z,101224.00
2019-01-18T11:20:56.224Z,101233.00
2019-01-18T11:23:26.302Z,101235.00
2019-01-18T11:25:56.406Z,101240.00
2019-01-18T11:28:26.598Z,101237.00
2019-01-18T11:30:56.710Z,101238.00
2019-01-18T11:33:26.794Z,101233.00
2019-01-18T11:35:56.890Z,101238.00
2019-01-18T11:38:26.974Z,101242.00
2019-01-18T11:40:57.070Z,101247.00
2019-01-18T11:43:27.139Z,101242.00
2019-01-18T11:45:57.235Z,101247.00
2019-01-18T11:48:27.364Z,101250.00
2019-01-18T11:50:57.805Z,101249.00
2019-01-18T11:53:27.869Z,101260.00
2019-01-18T11:55:58.006Z,101254.00
2019-01-18T11:58:28.081Z,101247.00
2019-01-18T12:00:58.173Z,101254.00
2019-01-18T12:03:28.248Z,101261.00
2019-01-18T12:05:58.348Z,101259.00
2019-01-18T12:08:28.431Z,101261.00
2019-01-18T12:10:58.542Z,101260.00
2019-01-18T12:13:28.638Z,101259.00
2019-01-18T12:15:58.731Z,101260.00
2019-01-18T12:18:28.819Z,101263.00
2019-01-18T12:20:58.914Z,101259.00
2019-01-18T12:23:28.987Z,101259.00
2019-01-18T12:25:59.138Z,101272.00
2019-01-18T12:28:29.255Z,101263.00
2019-01-18T12:30:59.360Z,101260.00
2019-01-18T12:33:29.438Z,101264.00
2019-01-18T12:35:59.533Z,101271.00
2019-01-18T12:38:29.631Z,101265.00
2019-01-18T12:40:59.786Z,101255.00
2019-01-18T12:43:29.844Z,101255.00
2019-01-18T12:45:59.947Z,101262.00
2019-01-18T12:48:30.022Z,101272.00
2019-01-18T12:51:00.178Z,101266.00
2019-01-18T12:53:30.306Z,101264.00
2019-01-18T12:56:00.399Z,101270.00
2019-01-18T12:58:30.477Z,101260.00
2019-01-18T13:01:00.661Z,101263.00
2019-01-18T13:03:30.714Z,101272.00
2019-01-18T13:06:00.951Z,101270.00
2019-01-18T13:08:31.069Z,101264.00
2019-01-18T13:11:01.200Z,101272.00
2019-01-18T13:13:31.263Z,101266.00
2019-01-18T13:16:17.642Z,101269.00
2019-01-18T13:18:48.548Z,101273.00
2019-01-18T13:21:18.650Z,101273.00
2019-01-18T13:23:48.726Z,101263.00
2019-01-18T13:26:18.838Z,101274.00
2019-01-18T13:28:48.917Z,101273.00
2019-01-18T13:31:19.058Z,101277.00
2019-01-18T13:33:49.093Z,101277.00
2019-01-18T13:36:19.196Z,101275.00
2019-01-18T13:38:49.290Z,101276.00
2019-01-18T13:41:19.388Z,101267.00
2019-01-18T13:43:49.462Z,101275.00
2019-01-18T13:46:19.561Z,101276.00
2019-01-18T13:48:49.632Z,101278.00
2019-01-18T13:51:19.741Z,101277.00
2019-01-18T13:53:49.818Z,101278.00
2019-01-18T13:56:19.918Z,101273.00
2019-01-18T13:58:50.005Z,101272.00
2019-01-18T14:01:20.118Z,101284.00
2019-01-18T14:03:50.191Z,101276.00
2019-01-18T14:06:20.293Z,101274.00
2019-01-18T14:08:50.370Z,101279.00
2019-01-18T14:11:20.474Z,101272.00
2019-01-18T14:14:09.981Z,101266.00
2019-01-18T14:16:40.085Z,101277.00
2019-01-18T14:19:10.155Z,101271.00
2019-01-18T14:21:52.307Z,101274.00
2019-01-18T14:24:22.440Z,101275.00
2019-01-18T14:26:52.538Z,101260.00
2019-01-18T14:29:22.607Z,101276.00
2019-01-18T14:31:52.741Z,101269.00
2019-01-18T14:34:22.810Z,101263.00
2019-01-18T14:36:52.914Z,101280.00
2019-01-18T14:39:23.018Z,101278.00
2019-01-18T14:41:53.166Z,101280.00
2019-01-18T14:44:23.252Z,101275.00
2019-01-18T14:46:53.358Z,101279.00
2019-01-18T14:49:23.434Z,101280.00
2019-01-18T14:51:53.539Z,101281.00
2019-01-18T14:54:23.615Z,101280.00
2019-01-18T14:56:54.695Z,101280.00
2019-01-18T14:59:24.762Z,101279.00
2019-01-18T15:01:54.952Z,101283.00
2019-01-18T15:04:25.056Z,101285.00
2019-01-18T15:06:55.132Z,101277.00
2019-01-18T15:09:25.240Z,101279.00
2019-01-18T15:11:55.421Z,101279.00
2019-01-18T15:14:25.533Z,101275.00
2019-01-18T15:17:15.075Z,101269.00
2019-01-18T15:19:45.149Z,101285.00
2019-01-18T15:22:15.253Z,101282.00
2019-01-18T15:24:45.328Z,101279.00
2019-01-18T15:27:15.438Z,101280.00
2019-01-18T15:29:45.699Z,101280.00
2019-01-18T15:32:15.793Z,101286.00
2019-01-18T15:34:45.887Z,101269.00
2019-01-18T15:37:16.065Z,101283.00
2019-01-18T15:39:46.164Z,101283.00
2019-01-18T15:42:16.317Z,101286.00
2019-01-18T15:44:46.407Z,101272.00
2019-01-18T15:47:16.535Z,101294.00
2019-01-18T15:49:46.639Z,101288.00
2019-01-18T15:52:16.732Z,101293.00
2019-01-18T15:54:46.843Z,101287.00
2019-01-18T15:57:18.298Z,101289.00
2019-01-18T15:59:48.438Z,101285.00
2019-01-18T16:02:18.514Z,101293.00
2019-01-18T16:04:48.614Z,101283.00
2019-01-18T16:07:18.685Z,101291.00
2019-01-18T16:09:48.789Z,101289.00
2019-01-18T16:12:18.861Z,101296.00
2019-01-18T16:14:48.995Z,101298.00
2019-01-18T16:17:19.885Z,101301.00
2019-01-18T16:19:49.989Z,101304.00
2019-01-18T16:22:20.065Z,101295.00
2019-01-18T16:24:50.175Z,101309.00
2019-01-18T16:27:20.253Z,101305.00
2019-01-18T16:29:50.354Z,101302.00
2019-01-18T16:32:20.768Z,101303.00
2019-01-18T16:35:04.894Z,101294.00
2019-01-18T16:37:34.964Z,101293.00
2019-01-18T16:40:09.952Z,101301.00
2019-01-18T16:42:40.049Z,101297.00
2019-01-18T16:45:12.324Z,101294.00
2019-01-18T16:47:42.440Z,101305.00
2019-01-18T16:50:14.583Z,101306.00
2019-01-18T16:52:44.733Z,101306.00
2019-01-18T16:55:15.677Z,101308.00
2019-01-18T16:57:45.752Z,101308.00
2019-01-18T17:00:32.449Z,101307.00
2019-01-18T17:03:02.519Z,101311.00
2019-01-18T17:05:32.626Z,101306.00
2019-01-18T17:08:02.703Z,101306.00
2019-01-18T17:10:32.815Z,101300.00
2019-01-18T17:13:02.931Z,101286.00
2019-01-18T17:15:33.202Z,101288.00
2019-01-18T17:18:03.360Z,101297.00
2019-01-18T17:20:40.300Z,101297.00
2019-01-18T17:23:10.426Z,101303.00
2019-01-18T17:25:40.581Z,101297.00
2019-01-18T17:28:10.622Z,101297.00
2019-01-18T17:30:40.720Z,101306.00
2019-01-18T17:33:10.793Z,101302.00
2019-01-18T17:35:54.802Z,101296.00
2019-01-18T17:38:59.459Z,101306.00
2019-01-18T17:42:19.329Z,101311.00
2019-01-18T17:45:11.003Z,101316.00
2019-01-18T17:47:54.805Z,101325.00
2019-01-18T17:51:09.254Z,101310.00
2019-01-18T17:54:00.082Z,101312.00
2019-01-18T17:56:46.754Z,101320.00
2019-01-18T17:59:48.763Z,101322.00
2019-01-18T18:02:49.933Z,101327.00
2019-01-18T18:05:33.917Z,101332.00
2019-01-18T18:08:18.011Z,101337.00
2019-01-18T18:11:39.831Z,101339.00
2019-01-18T18:14:29.352Z,101340.00
2019-01-18T18:17:19.035Z,101346.00
2019-01-18T18:20:18.559Z,101348.00
2019-01-18T18:23:12.685Z,101358.00
2019-01-18T18:26:26.984Z,101352.00
2019-01-18T18:29:24.886Z,101357.00
2019-01-18T18:32:17.860Z,101355.00
2019-01-18T18:35:32.230Z,101351.00
2019-01-18T18:38:35.624Z,101358.00
2019-01-18T18:41:32.561Z,101357.00
2019-01-18T18:44:24.945Z,101350.00
2019-01-18T18:47:23.389Z,101347.00
2019-01-18T18:50:17.353Z,101358.00
2019-01-18T18:53:24.943Z,101355.00
2019-01-18T18:56:28.492Z,101364.00
2019-01-18T18:59:25.961Z,101357.00
2019-01-18T19:02:31.358Z,101352.00
2019-01-18T19:05:30.833Z,101368.00
2019-01-18T19:08:08.692Z,101366.00
2019-01-18T19:10:46.408Z,101372.00
2019-01-18T19:13:33.837Z,101367.00
2019-01-18T19:16:11.271Z,101367.00
2019-01-18T19:19:07.155Z,101370.00
2019-01-18T19:22:15.295Z,101374.00
2019-01-18T19:25:20.461Z,101366.00
2019-01-18T19:28:04.294Z,101383.00
2019-01-18T19:30:55.919Z,101371.00
2019-01-18T19:33:48.799Z,101383.00
2019-01-18T19:36:35.384Z,101386.00
2019-01-18T19:39:46.501Z,101385.00
2019-01-18T19:43:03.684Z,101386.00
2019-01-18T19:45:52.923Z,101388.00
2019-01-18T19:48:49.891Z,101387.00
2019-01-18T19:51:42.876Z,101394.00
2019-01-18T19:54:26.691Z,101399.00
2019-01-18T19:57:30.079Z,101394.00
2019-01-18T20:00:10.593Z,101402.00
2019-01-18T20:02:56.139Z,101399.00
2019-01-18T20:05:52.867Z,101411.00
2019-01-18T20:08:33.410Z,101410.00
2019-01-18T20:11:26.078Z,101404.00
2019-01-18T20:14:34.261Z,101403.00
2019-01-18T20:17:37.204Z,101409.00
2019-01-18T20:20:45.392Z,101423.00
2019-01-18T20:23:41.318Z,101415.00
2019-01-18T20:26:21.406Z,101409.00
2019-01-18T20:29:31.226Z,101418.00
2019-01-18T20:32:29.849Z,101419.00
2019-01-18T20:35:45.525Z,101422.00
2019-01-18T20:38:56.551Z,101423.00
2019-01-18T20:42:08.901Z,101427.00
2019-01-18T20:44:43.894Z,101431.00
2019-01-18T20:47:57.102Z,101430.00
2019-01-18T20:50:49.681Z,101430.00
2019-01-18T20:53:53.399Z,101432.00
2019-01-18T20:56:49.564Z,101435.00
2019-01-18T20:59:30.806Z,101429.00
2019-01-18T21:02:08.466Z,101433.00
2019-01-18T21:05:12.069Z,101434.00
2019-01-18T21:08:08.015Z,101444.00
2019-01-18T21:10:54.968Z,101438.00
2019-01-18T21:13:41.498Z,101445.00
2019-01-18T21:16:37.535Z,101448.00
2019-01-18T21:19:20.899Z,101451.00
2019-01-18T21:22:10.642Z,101447.00
2019-01-18T21:25:12.114Z,101450.00
2019-01-18T21:28:23.587Z,101455.00
2019-01-18T21:31:15.778Z,101452.00
2019-01-18T21:34:19.536Z,101450.00
2019-01-18T21:37:06.370Z,101446.00
2019-01-18T21:40:24.705Z,101456.00
2019-01-18T21:43:26.531Z,101457.00
2019-01-18T21:46:28.715Z,101465.00
2019-01-18T21:49:09.452Z,101462.00
2019-01-18T21:52:11.626Z,101467.00
2019-01-18T21:54:52.199Z,101462.00
2019-01-18T21:57:56.517Z,101472.00
2019-01-18T22:00:42.984Z,101474.00
2019-01-18T22:03:42.510Z,101475.00
2019-01-18T22:06:29.123Z,101477.00
2019-01-18T22:09:18.948Z,101477.00
2019-01-18T22:12:20.673Z,101471.00
2019-01-18T22:15:19.791Z,101479.00
2019-01-18T22:18:03.253Z,101479.00
2019-01-18T22:20:56.147Z,101482.00
2019-01-18T22:23:36.934Z,101481.00
2019-01-18T22:26:34.900Z,101482.00
2019-01-18T22:29:24.934Z,101490.00
2019-01-18T22:32:17.683Z,101485.00
2019-01-18T22:35:09.184Z,101486.00
2019-01-18T22:38:01.977Z,101480.00
2019-01-18T22:41:05.713Z,101489.00
2019-01-18T22:44:06.357Z,101487.00
2019-01-18T22:46:56.639Z,101487.00
2019-01-18T22:49:31.606Z,101481.00
2019-01-18T22:52:33.563Z,101481.00
2019-01-18T22:55:39.205Z,101487.00
2019-01-18T22:58:45.726Z,101483.00
2019-01-18T23:01:53.977Z,101481.00
2019-01-18T23:04:37.710Z,101485.00
2019-01-18T23:07:12.829Z,101487.00
2019-01-18T23:10:27.194Z,101490.00
2019-01-18T23:13:13.943Z,101490.00
2019-01-18T23:16:25.286Z,101488.00
2019-01-18T23:19:03.259Z,101479.00
2019-01-18T23:21:56.371Z,101474.00
2019-01-18T23:24:53.258Z,101484.00
2019-01-18T23:27:34.074Z,101490.00
2019-01-18T23:30:14.323Z,101494.00
2019-01-18T23:33:16.285Z,101488.00
2019-01-18T23:35:53.910Z,101487.00
2019-01-18T23:39:02.020Z,101486.00
2019-01-18T23:42:14.135Z,101488.00
2019-01-18T23:45:18.703Z,101481.00
2019-01-18T23:48:05.689Z,101484.00
2019-01-18T23:50:52.083Z,101475.00
2019-01-18T23:53:48.095Z,101478.00
2019-01-18T23:56:47.256Z,101474.00
2019-01-18T23:59:28.255Z,101457.00
